createdAt,value
2018-07-29T00:00:07.765Z,14.40
2018-07-29T00:01:07.764Z,14.50
2018-07-29T00:02:07.783Z,15.20
2018-07-29T00:03:07.772Z,13.70
2018-07-29T00:04:07.776Z,15.90
2018-07-29T00:05:07.791Z,13.90
2018-07-29T00:06:07.782Z,14.90
2018-07-29T00:07:07.782Z,13.70
2018-07-29T00:08:07.787Z,12.50
2018-07-29T00:09:07.790Z,16.40
2018-07-29T00:10:07.792Z,27.30
2018-07-29T00:11:07.798Z,14.80
2018-07-29T00:12:07.831Z,16.60
2018-07-29T00:13:07.804Z,13.10
2018-07-29T00:14:07.801Z,12.40
2018-07-29T00:15:07.820Z,12.80
2018-07-29T00:16:07.812Z,11.90
2018-07-29T00:17:07.821Z,10.40
2018-07-29T00:18:07.820Z,10.20
2018-07-29T00:19:07.825Z,8.80
2018-07-29T00:20:07.817Z,9.60
2018-07-29T00:21:07.837Z,9.30
2018-07-29T00:22:07.827Z,9.00
2018-07-29T00:23:07.837Z,9.50
2018-07-29T00:24:07.829Z,9.00
2018-07-29T00:25:07.831Z,8.80
2018-07-29T00:26:07.842Z,8.70
2018-07-29T00:27:07.889Z,8.90
2018-07-29T00:28:07.900Z,8.50
2018-07-29T00:29:07.841Z,8.90
2018-07-29T00:30:07.844Z,11.60
2018-07-29T00:31:07.882Z,8.80
2018-07-29T00:32:07.853Z,8.80
2018-07-29T00:33:07.852Z,7.60
2018-07-29T00:34:07.855Z,4.50
2018-07-29T00:35:07.856Z,4.30
2018-07-29T00:36:07.860Z,5.60
2018-07-29T00:37:07.889Z,4.00
2018-07-29T00:38:07.866Z,4.30
2018-07-29T00:39:07.868Z,4.60
2018-07-29T00:40:07.870Z,6.30
2018-07-29T00:41:07.873Z,7.20
2018-07-29T00:42:07.874Z,8.40
2018-07-29T00:43:07.878Z,7.50
2018-07-29T00:44:07.898Z,5.80
2018-07-29T00:45:07.898Z,3.70
2018-07-29T00:46:07.895Z,3.30
2018-07-29T00:47:07.897Z,3.80
2018-07-29T00:48:07.913Z,3.90
2018-07-29T00:49:07.894Z,3.80
2018-07-29T00:50:07.898Z,4.10
2018-07-29T00:51:07.899Z,3.80
2018-07-29T00:52:07.900Z,3.50
2018-07-29T00:53:07.927Z,3.90
2018-07-29T00:54:07.937Z,3.90
2018-07-29T00:55:07.917Z,3.70
2018-07-29T00:56:07.919Z,4.40
2018-07-29T00:57:07.920Z,3.80
2018-07-29T00:58:07.921Z,3.50
2018-07-29T00:59:07.969Z,3.60
2018-07-29T01:00:07.923Z,5.80
2018-07-29T01:01:07.924Z,8.40
2018-07-29T01:02:07.928Z,3.70
2018-07-29T01:03:07.930Z,4.40
2018-07-29T01:04:07.931Z,4.50
2018-07-29T01:05:07.951Z,3.40
2018-07-29T01:06:07.940Z,2.70
2018-07-29T01:07:07.939Z,11.90
2018-07-29T01:08:07.943Z,4.10
2018-07-29T01:09:07.947Z,3.70
2018-07-29T01:10:07.948Z,3.30
2018-07-29T01:11:08.020Z,3.60
2018-07-29T01:12:07.960Z,3.70
2018-07-29T01:13:07.955Z,3.00
2018-07-29T01:14:07.985Z,5.30
2018-07-29T01:15:07.966Z,2.80
2018-07-29T01:16:07.967Z,2.20
2018-07-29T01:17:08.000Z,2.60
2018-07-29T01:18:07.972Z,2.80
2018-07-29T01:19:07.976Z,2.80
2018-07-29T01:20:08.068Z,3.20
2018-07-29T01:21:07.996Z,3.80
2018-07-29T01:22:07.979Z,3.50
2018-07-29T01:23:07.980Z,4.10
2018-07-29T01:24:07.982Z,5.90
2018-07-29T01:25:07.988Z,5.30
2018-07-29T01:26:07.992Z,4.30
2018-07-29T01:27:08.005Z,3.80
2018-07-29T01:28:08.007Z,5.10
2018-07-29T01:29:08.000Z,25.40
2018-07-29T01:30:08.005Z,51.20
2018-07-29T01:31:08.002Z,13.30
2018-07-29T01:32:08.007Z,19.30
2018-07-29T01:33:08.006Z,17.70
2018-07-29T01:34:08.022Z,26.60
2018-07-29T01:35:08.015Z,21.50
2018-07-29T01:36:08.023Z,25.40
2018-07-29T01:37:09.023Z,38.20
2018-07-29T01:38:08.024Z,11.50
2018-07-29T01:39:08.026Z,7.40
2018-07-29T01:40:08.030Z,6.60
2018-07-29T01:41:08.025Z,6.10
2018-07-29T01:42:08.030Z,5.90
2018-07-29T01:43:08.032Z,8.40
2018-07-29T01:44:08.034Z,16.90
2018-07-29T01:45:08.041Z,46.60
2018-07-29T01:46:08.047Z,21.20
2018-07-29T01:47:08.082Z,17.70
2018-07-29T01:48:08.058Z,10.70
2018-07-29T01:49:08.060Z,8.10
2018-07-29T01:50:08.055Z,13.60
2018-07-29T01:51:08.058Z,10.90
2018-07-29T01:52:08.065Z,5.60
2018-07-29T01:53:08.076Z,3.90
2018-07-29T01:54:08.057Z,5.20
2018-07-29T01:55:08.069Z,4.80
2018-07-29T01:56:08.061Z,4.00
2018-07-29T01:57:08.134Z,4.30
2018-07-29T01:58:08.070Z,4.20
2018-07-29T01:59:08.074Z,5.40
2018-07-29T02:00:08.075Z,8.00
2018-07-29T02:01:08.076Z,6.30
2018-07-29T02:02:08.081Z,4.10
2018-07-29T02:03:08.089Z,5.00
2018-07-29T02:04:08.089Z,9.60
2018-07-29T02:05:08.096Z,14.50
2018-07-29T02:06:08.108Z,25.10
2018-07-29T02:07:08.099Z,25.10
2018-07-29T02:08:08.098Z,7.40
2018-07-29T02:09:08.099Z,10.20
2018-07-29T02:10:08.112Z,11.70
2018-07-29T02:11:08.108Z,4.40
2018-07-29T02:12:08.154Z,5.40
2018-07-29T02:13:08.111Z,4.70
2018-07-29T02:14:08.109Z,4.70
2018-07-29T02:15:08.117Z,4.90
2018-07-29T02:16:08.117Z,6.30
2018-07-29T02:17:08.123Z,5.00
2018-07-29T02:18:08.119Z,3.40
2018-07-29T02:19:08.120Z,4.00
2018-07-29T02:20:08.123Z,4.10
2018-07-29T02:21:08.159Z,3.90
2018-07-29T02:22:08.127Z,3.50
2018-07-29T02:23:08.131Z,3.50
2018-07-29T02:24:08.136Z,4.60
2018-07-29T02:25:08.138Z,4.10
2018-07-29T02:26:08.137Z,3.20
2018-07-29T02:27:08.141Z,3.70
2018-07-29T02:28:08.145Z,3.20
2018-07-29T02:29:08.146Z,3.50
2018-07-29T02:30:08.149Z,4.30
2018-07-29T02:31:08.150Z,3.30
2018-07-29T02:32:08.155Z,3.70
2018-07-29T02:33:08.158Z,3.80
2018-07-29T02:34:08.161Z,3.60
2018-07-29T02:35:08.167Z,4.20
2018-07-29T02:36:08.173Z,4.60
2018-07-29T02:37:08.168Z,6.80
2018-07-29T02:38:08.215Z,6.10
2018-07-29T02:39:08.177Z,5.20
2018-07-29T02:40:08.255Z,4.80
2018-07-29T02:41:08.176Z,4.00
2018-07-29T02:42:08.178Z,3.70
2018-07-29T02:43:08.179Z,3.90
2018-07-29T02:44:08.182Z,4.30
2018-07-29T02:45:08.186Z,4.50
2018-07-29T02:46:08.188Z,5.10
2018-07-29T02:47:08.195Z,4.40
2018-07-29T02:48:08.196Z,4.30
2018-07-29T02:49:08.200Z,4.00
2018-07-29T02:50:08.197Z,3.80
2018-07-29T02:51:08.225Z,3.40
2018-07-29T02:52:08.206Z,3.60
2018-07-29T02:53:08.211Z,3.40
2018-07-29T02:54:08.207Z,3.50
2018-07-29T02:55:08.213Z,3.80
2018-07-29T02:56:08.213Z,3.70
2018-07-29T02:57:08.215Z,3.70
2018-07-29T02:58:08.218Z,4.30
2018-07-29T02:59:08.275Z,4.00
2018-07-29T03:00:08.223Z,3.30
2018-07-29T03:01:08.225Z,4.20
2018-07-29T03:02:08.228Z,4.70
2018-07-29T03:03:08.234Z,3.70
2018-07-29T03:04:08.233Z,3.80
2018-07-29T03:05:08.234Z,3.60
2018-07-29T03:06:08.236Z,3.60
2018-07-29T03:07:08.241Z,3.90
2018-07-29T03:08:08.242Z,3.40
2018-07-29T03:09:08.245Z,3.80
2018-07-29T03:10:08.246Z,3.70
2018-07-29T03:11:08.249Z,3.60
2018-07-29T03:12:08.252Z,3.60
2018-07-29T03:13:08.271Z,3.90
2018-07-29T03:14:08.256Z,3.70
2018-07-29T03:15:08.259Z,3.60
2018-07-29T03:16:08.263Z,4.60
2018-07-29T03:17:08.311Z,3.70
2018-07-29T03:18:36.045Z,3.80
2018-07-29T03:19:08.267Z,3.90
2018-07-29T03:20:08.268Z,4.20
2018-07-29T03:21:08.275Z,4.40
2018-07-29T03:22:08.278Z,3.80
2018-07-29T03:23:08.278Z,3.80
2018-07-29T03:24:08.278Z,4.00
2018-07-29T03:25:08.283Z,4.10
2018-07-29T03:26:08.284Z,4.10
2018-07-29T03:27:08.285Z,4.00
2018-07-29T03:28:08.288Z,4.50
2018-07-29T03:29:08.294Z,3.90
2018-07-29T03:30:08.298Z,4.40
2018-07-29T03:31:08.294Z,4.10
2018-07-29T03:32:08.297Z,4.20
2018-07-29T03:33:08.300Z,3.80
2018-07-29T03:34:08.350Z,3.90
2018-07-29T03:35:08.304Z,3.90
2018-07-29T03:36:08.306Z,3.90
2018-07-29T03:37:08.310Z,4.20
2018-07-29T03:38:08.310Z,4.10
2018-07-29T03:39:08.315Z,4.10
2018-07-29T03:40:08.316Z,3.90
2018-07-29T03:41:08.317Z,4.00
2018-07-29T03:42:08.318Z,3.90
2018-07-29T03:43:08.324Z,4.00
2018-07-29T03:44:08.324Z,4.00
2018-07-29T03:45:08.330Z,3.80
2018-07-29T03:46:08.330Z,4.20
2018-07-29T03:47:08.332Z,4.50
2018-07-29T03:48:08.333Z,4.60
2018-07-29T03:49:08.337Z,4.10
2018-07-29T03:50:08.336Z,4.40
2018-07-29T03:51:08.338Z,4.20
2018-07-29T03:52:08.341Z,4.70
2018-07-29T03:53:08.344Z,4.10
2018-07-29T03:54:08.348Z,4.60
2018-07-29T03:55:08.347Z,4.00
2018-07-29T03:56:08.351Z,4.70
2018-07-29T03:57:08.355Z,4.90
2018-07-29T03:58:08.354Z,4.40
2018-07-29T03:59:08.357Z,4.40
2018-07-29T04:00:08.360Z,4.10
2018-07-29T04:01:08.362Z,4.20
2018-07-29T04:02:08.363Z,4.00
2018-07-29T04:03:08.369Z,4.20
2018-07-29T04:04:08.369Z,4.40
2018-07-29T04:05:08.372Z,5.00
2018-07-29T04:06:08.373Z,4.40
2018-07-29T04:07:08.379Z,4.80
2018-07-29T04:08:08.383Z,4.10
2018-07-29T04:09:08.380Z,4.90
2018-07-29T04:10:08.382Z,4.30
2018-07-29T04:11:08.384Z,4.20
2018-07-29T04:12:08.436Z,4.80
2018-07-29T04:13:08.423Z,3.90
2018-07-29T04:14:08.410Z,4.20
2018-07-29T04:15:08.392Z,4.50
2018-07-29T04:16:08.395Z,4.50
2018-07-29T04:17:08.398Z,4.60
2018-07-29T04:18:08.399Z,4.90
2018-07-29T04:19:08.402Z,4.90
2018-07-29T04:20:08.405Z,4.50
2018-07-29T04:21:08.407Z,4.60
2018-07-29T04:22:08.408Z,4.10
2018-07-29T04:23:08.410Z,4.90
2018-07-29T04:24:08.413Z,4.40
2018-07-29T04:25:08.419Z,4.50
2018-07-29T04:26:08.417Z,4.50
2018-07-29T04:27:08.419Z,4.00
2018-07-29T04:28:08.422Z,4.70
2018-07-29T04:29:08.432Z,4.80
2018-07-29T04:30:08.428Z,4.80
2018-07-29T04:31:08.429Z,5.70
2018-07-29T04:32:08.431Z,5.10
2018-07-29T04:33:08.434Z,5.10
2018-07-29T04:34:08.440Z,5.50
2018-07-29T04:35:08.438Z,4.80
2018-07-29T04:36:08.440Z,5.10
2018-07-29T04:37:08.444Z,5.00
2018-07-29T04:38:08.445Z,5.00
2018-07-29T04:39:08.447Z,5.00
2018-07-29T04:40:08.450Z,5.10
2018-07-29T04:41:08.452Z,5.20
2018-07-29T04:42:08.454Z,5.20
2018-07-29T04:43:08.457Z,5.60
2018-07-29T04:44:08.458Z,5.70
2018-07-29T04:45:08.460Z,5.80
2018-07-29T04:46:08.463Z,5.60
2018-07-29T04:47:08.470Z,5.30
2018-07-29T04:48:08.471Z,5.30
2018-07-29T04:49:08.470Z,5.60
2018-07-29T04:50:08.471Z,5.30
2018-07-29T04:51:08.475Z,5.10
2018-07-29T04:52:08.479Z,5.30
2018-07-29T04:53:08.480Z,5.20
2018-07-29T04:54:08.482Z,5.10
2018-07-29T04:55:08.490Z,5.90
2018-07-29T04:56:08.488Z,5.10
2018-07-29T04:57:08.490Z,5.30
2018-07-29T04:58:08.491Z,5.60
2018-07-29T04:59:08.496Z,5.10
2018-07-29T05:00:08.500Z,5.50
2018-07-29T05:01:08.500Z,5.70
2018-07-29T05:02:08.502Z,5.80
2018-07-29T05:03:08.505Z,5.30
2018-07-29T05:04:08.507Z,5.40
2018-07-29T05:05:08.511Z,5.50
2018-07-29T05:06:08.515Z,5.60
2018-07-29T05:07:08.520Z,5.50
2018-07-29T05:08:08.518Z,6.40
2018-07-29T05:09:08.520Z,6.40
2018-07-29T05:10:08.524Z,5.90
2018-07-29T05:11:08.526Z,6.60
2018-07-29T05:12:08.530Z,5.90
2018-07-29T05:13:08.533Z,5.80
2018-07-29T05:14:08.533Z,6.20
2018-07-29T05:15:08.540Z,6.50
2018-07-29T05:16:08.546Z,6.10
2018-07-29T05:17:08.546Z,6.00
2018-07-29T05:18:08.637Z,6.70
2018-07-29T05:19:08.546Z,7.60
2018-07-29T05:20:08.552Z,7.20
2018-07-29T05:21:08.555Z,7.20
2018-07-29T05:22:08.559Z,7.40
2018-07-29T05:23:08.559Z,7.70
2018-07-29T05:24:08.571Z,8.70
2018-07-29T05:25:08.646Z,8.50
2018-07-29T05:26:08.568Z,8.70
2018-07-29T05:27:08.570Z,8.20
2018-07-29T05:28:08.574Z,8.40
2018-07-29T05:29:08.577Z,7.70
2018-07-29T05:30:08.580Z,8.20
2018-07-29T05:31:08.602Z,7.70
2018-07-29T05:32:08.587Z,8.20
2018-07-29T05:33:08.591Z,8.30
2018-07-29T05:34:08.625Z,8.90
2018-07-29T05:35:08.595Z,8.10
2018-07-29T05:36:08.599Z,9.10
2018-07-29T05:37:08.603Z,8.70
2018-07-29T05:38:08.631Z,8.30
2018-07-29T05:39:08.614Z,8.10
2018-07-29T05:40:08.638Z,8.70
2018-07-29T05:41:08.617Z,8.60
2018-07-29T05:42:08.619Z,8.00
2018-07-29T05:43:08.623Z,8.40
2018-07-29T05:44:08.633Z,8.30
2018-07-29T05:45:08.651Z,8.40
2018-07-29T05:46:08.632Z,8.00
2018-07-29T05:47:08.638Z,7.40
2018-07-29T05:48:08.641Z,7.30
2018-07-29T05:49:08.645Z,7.20
2018-07-29T05:50:08.652Z,8.00
2018-07-29T05:51:08.653Z,7.30
2018-07-29T05:52:08.663Z,7.80
2018-07-29T05:53:08.657Z,7.90
2018-07-29T05:54:08.663Z,7.50
2018-07-29T05:55:08.664Z,8.00
2018-07-29T05:56:08.797Z,7.60
2018-07-29T05:57:08.673Z,8.10
2018-07-29T05:58:08.675Z,8.00
2018-07-29T05:59:08.678Z,7.90
2018-07-29T06:00:08.683Z,7.80
2018-07-29T06:01:08.687Z,7.90
2018-07-29T06:02:08.689Z,8.60
2018-07-29T06:03:08.696Z,8.10
2018-07-29T06:04:08.768Z,8.60
2018-07-29T06:05:08.713Z,9.00
2018-07-29T06:06:08.704Z,8.20
2018-07-29T06:07:08.709Z,8.10
2018-07-29T06:08:08.713Z,8.50
2018-07-29T06:09:08.721Z,8.50
2018-07-29T06:10:08.721Z,8.00
2018-07-29T06:11:08.726Z,8.40
2018-07-29T06:12:08.730Z,8.20
2018-07-29T06:13:08.733Z,8.50
2018-07-29T06:14:08.735Z,8.00
2018-07-29T06:15:08.739Z,8.80
2018-07-29T06:16:08.744Z,8.60
2018-07-29T06:17:08.749Z,8.60
2018-07-29T06:18:08.752Z,8.90
2018-07-29T06:19:08.761Z,8.00
2018-07-29T06:20:08.759Z,8.20
2018-07-29T06:21:08.765Z,8.70
2018-07-29T06:22:08.769Z,8.00
2018-07-29T06:23:08.779Z,9.40
2018-07-29T06:24:08.781Z,8.60
2018-07-29T06:25:08.784Z,8.70
2018-07-29T06:26:08.787Z,8.60
2018-07-29T06:27:08.803Z,9.70
2018-07-29T06:28:08.791Z,9.50
2018-07-29T06:29:08.796Z,8.50
2018-07-29T06:30:08.799Z,9.20
2018-07-29T06:31:08.804Z,8.40
2018-07-29T06:32:08.809Z,9.40
2018-07-29T06:33:08.814Z,9.00
2018-07-29T06:34:08.817Z,8.90
2018-07-29T06:35:08.820Z,8.90
2018-07-29T06:36:08.824Z,9.20
2018-07-29T06:37:08.829Z,9.50
2018-07-29T06:38:08.831Z,9.10
2018-07-29T06:39:08.838Z,9.30
2018-07-29T06:40:08.845Z,8.80
2018-07-29T06:41:08.846Z,9.40
2018-07-29T06:42:08.851Z,10.10
2018-07-29T06:43:08.868Z,9.30
2018-07-29T06:44:08.859Z,9.20
2018-07-29T06:45:08.864Z,9.50
2018-07-29T06:46:08.868Z,9.20
2018-07-29T06:47:08.869Z,9.20
2018-07-29T06:48:08.912Z,9.50
2018-07-29T06:49:08.878Z,9.80
2018-07-29T06:50:08.881Z,9.80
2018-07-29T06:51:08.889Z,9.30
2018-07-29T06:52:08.894Z,9.20
2018-07-29T06:53:08.895Z,9.80
2018-07-29T06:54:08.899Z,9.00
2018-07-29T06:55:08.903Z,9.70
2018-07-29T06:56:08.912Z,9.30
2018-07-29T06:57:08.913Z,9.70
2018-07-29T06:58:08.916Z,8.70
2018-07-29T06:59:08.923Z,9.80
2018-07-29T07:00:08.928Z,9.50
2018-07-29T07:01:08.932Z,9.80
2018-07-29T07:02:08.930Z,9.40
2018-07-29T07:03:08.987Z,9.30
2018-07-29T07:04:08.941Z,9.30
2018-07-29T07:05:09.540Z,8.90
2018-07-29T07:06:08.946Z,9.10
2018-07-29T07:07:08.955Z,8.40
2018-07-29T07:08:08.956Z,9.60
2018-07-29T07:09:08.965Z,8.70
2018-07-29T07:10:08.962Z,9.00
2018-07-29T07:11:08.970Z,8.60
2018-07-29T07:12:08.974Z,8.30
2018-07-29T07:13:08.976Z,8.40
2018-07-29T07:14:08.986Z,8.10
2018-07-29T07:15:08.984Z,8.30
2018-07-29T07:16:08.987Z,8.20
2018-07-29T07:17:08.992Z,8.10
2018-07-29T07:18:09.061Z,7.70
2018-07-29T07:19:09.000Z,8.10
2018-07-29T07:20:09.030Z,7.70
2018-07-29T07:21:09.008Z,8.00
2018-07-29T07:22:09.015Z,7.40
2018-07-29T07:23:09.021Z,8.10
2018-07-29T07:24:09.022Z,7.10
2018-07-29T07:25:09.028Z,6.70
2018-07-29T07:26:09.052Z,7.60
2018-07-29T07:27:09.065Z,7.70
2018-07-29T07:28:09.041Z,8.00
2018-07-29T07:29:09.045Z,6.50
2018-07-29T07:30:09.043Z,7.10
2018-07-29T07:31:09.052Z,7.10
2018-07-29T07:32:09.065Z,7.00
2018-07-29T07:33:09.059Z,7.40
2018-07-29T07:34:09.065Z,6.90
2018-07-29T07:35:09.075Z,7.30
2018-07-29T07:36:09.073Z,6.60
2018-07-29T07:37:09.075Z,7.20
2018-07-29T07:38:09.076Z,7.00
2018-07-29T07:39:09.081Z,6.80
2018-07-29T07:40:09.095Z,7.00
2018-07-29T07:41:09.097Z,7.30
2018-07-29T07:42:09.093Z,6.70
2018-07-29T07:43:09.097Z,6.70
2018-07-29T07:44:09.123Z,7.50
2018-07-29T07:45:09.110Z,6.60
2018-07-29T07:46:09.151Z,6.60
2018-07-29T07:47:09.112Z,6.60
2018-07-29T07:48:09.119Z,7.20
2018-07-29T07:49:09.124Z,7.00
2018-07-29T07:50:09.128Z,6.50
2018-07-29T07:51:09.132Z,6.60
2018-07-29T07:52:09.135Z,6.70
2018-07-29T07:53:09.145Z,6.60
2018-07-29T07:54:09.198Z,6.40
2018-07-29T07:55:09.150Z,5.90
2018-07-29T07:56:09.154Z,6.30
2018-07-29T07:57:09.158Z,6.90
2018-07-29T07:58:09.159Z,6.20
2018-07-29T07:59:09.166Z,6.10
2018-07-29T08:00:09.170Z,6.20
2018-07-29T08:01:09.260Z,6.20
2018-07-29T08:02:09.218Z,6.00
2018-07-29T08:03:09.210Z,6.00
2018-07-29T08:04:09.187Z,6.30
2018-07-29T08:05:09.197Z,6.50
2018-07-29T08:06:09.198Z,6.50
2018-07-29T08:07:09.198Z,5.70
2018-07-29T08:08:09.206Z,5.80
2018-07-29T08:09:09.213Z,5.30
2018-07-29T08:10:09.222Z,5.70
2018-07-29T08:11:09.225Z,5.70
2018-07-29T08:12:09.226Z,6.00
2018-07-29T08:13:09.236Z,5.70
2018-07-29T08:14:09.245Z,6.40
2018-07-29T08:15:09.236Z,6.00
2018-07-29T08:16:09.249Z,6.00
2018-07-29T08:17:09.244Z,5.90
2018-07-29T08:18:09.248Z,5.80
2018-07-29T08:19:09.253Z,6.20
2018-07-29T08:20:09.259Z,7.70
2018-07-29T08:21:09.264Z,7.40
2018-07-29T08:22:09.291Z,7.10
2018-07-29T08:23:09.277Z,6.40
2018-07-29T08:24:09.284Z,6.20
2018-07-29T08:25:09.290Z,5.50
2018-07-29T08:26:09.291Z,5.70
2018-07-29T08:27:09.293Z,5.60
2018-07-29T08:28:09.366Z,5.40
2018-07-29T08:29:09.311Z,5.90
2018-07-29T08:30:09.312Z,5.60
2018-07-29T08:31:09.315Z,5.40
2018-07-29T08:32:09.318Z,5.40
2018-07-29T08:33:09.322Z,5.30
2018-07-29T08:34:09.342Z,5.60
2018-07-29T08:35:09.333Z,5.60
2018-07-29T08:36:09.430Z,5.60
2018-07-29T08:37:09.342Z,5.50
2018-07-29T08:38:09.346Z,5.20
2018-07-29T08:39:09.352Z,5.50
2018-07-29T08:40:09.365Z,5.90
2018-07-29T08:41:09.360Z,6.60
2018-07-29T08:42:09.427Z,5.80
2018-07-29T08:43:09.380Z,5.80
2018-07-29T08:44:09.386Z,5.00
2018-07-29T08:45:09.487Z,5.90
2018-07-29T08:46:09.391Z,5.70
2018-07-29T08:47:09.393Z,6.00
2018-07-29T08:48:09.395Z,5.50
2018-07-29T08:49:09.402Z,5.70
2018-07-29T08:50:09.563Z,5.40
2018-07-29T08:51:09.414Z,5.20
2018-07-29T08:52:09.434Z,6.60
2018-07-29T08:53:09.428Z,6.30
2018-07-29T08:54:09.427Z,5.60
2018-07-29T08:55:09.433Z,5.40
2018-07-29T08:56:09.445Z,5.30
2018-07-29T08:57:09.450Z,5.60
2018-07-29T08:58:09.486Z,5.00
2018-07-29T08:59:09.469Z,5.00
2018-07-29T09:00:09.462Z,4.80
2018-07-29T09:01:09.479Z,5.10
2018-07-29T09:02:09.479Z,4.80
2018-07-29T09:03:09.481Z,4.80
2018-07-29T09:04:09.515Z,4.50
2018-07-29T09:05:09.496Z,5.00
2018-07-29T09:06:09.507Z,4.80
2018-07-29T09:07:09.553Z,4.90
2018-07-29T09:08:09.517Z,5.10
2018-07-29T09:09:09.532Z,4.80
2018-07-29T09:10:09.544Z,4.40
2018-07-29T09:11:09.545Z,5.00
2018-07-29T09:12:09.544Z,4.50
2018-07-29T09:13:09.552Z,4.30
2018-07-29T09:14:09.579Z,4.50
2018-07-29T09:15:09.570Z,4.30
2018-07-29T09:16:09.576Z,4.40
2018-07-29T09:17:09.582Z,4.40
2018-07-29T09:18:09.595Z,4.80
2018-07-29T09:19:09.597Z,4.40
2018-07-29T09:20:09.610Z,4.60
2018-07-29T09:21:09.620Z,4.70
2018-07-29T09:22:09.629Z,4.70
2018-07-29T09:23:09.673Z,4.70
2018-07-29T09:24:09.668Z,4.60
2018-07-29T09:25:09.649Z,4.40
2018-07-29T09:26:09.657Z,4.50
2018-07-29T09:27:09.687Z,4.50
2018-07-29T09:28:09.681Z,4.50
2018-07-29T09:29:09.684Z,4.30
2018-07-29T09:30:09.743Z,4.50
2018-07-29T09:31:09.697Z,4.10
2018-07-29T09:32:09.715Z,4.30
2018-07-29T09:33:09.713Z,4.30
2018-07-29T09:34:09.731Z,5.00
2018-07-29T09:35:09.730Z,4.40
2018-07-29T09:36:09.737Z,4.40
2018-07-29T09:37:09.745Z,4.40
2018-07-29T09:38:09.822Z,4.90
2018-07-29T09:39:09.758Z,4.30
2018-07-29T09:40:09.766Z,4.70
2018-07-29T09:41:09.773Z,4.30
2018-07-29T09:42:09.780Z,4.80
2018-07-29T09:43:09.791Z,5.00
2018-07-29T09:44:10.003Z,4.50
2018-07-29T09:45:09.844Z,4.70
2018-07-29T09:46:09.811Z,4.60
2018-07-29T09:47:09.814Z,4.40
2018-07-29T09:48:09.829Z,4.40
2018-07-29T09:49:09.833Z,4.00
2018-07-29T09:50:09.853Z,4.10
2018-07-29T09:51:09.842Z,4.40
2018-07-29T09:52:09.849Z,4.10
2018-07-29T09:53:09.864Z,4.20
2018-07-29T09:54:09.925Z,3.60
2018-07-29T09:55:09.921Z,4.60
2018-07-29T09:56:09.885Z,3.70
2018-07-29T09:57:09.885Z,3.90
2018-07-29T09:58:09.888Z,3.50
2018-07-29T09:59:09.895Z,3.70
2018-07-29T10:00:09.910Z,3.80
2018-07-29T10:01:09.910Z,3.70
2018-07-29T10:02:09.913Z,4.00
2018-07-29T10:03:10.038Z,3.50
2018-07-29T10:04:09.927Z,3.90
2018-07-29T10:05:09.936Z,3.90
2018-07-29T10:06:09.940Z,3.60
2018-07-29T10:07:09.947Z,4.10
2018-07-29T10:08:10.034Z,4.20
2018-07-29T10:09:09.971Z,3.70
2018-07-29T10:10:09.971Z,3.90
2018-07-29T10:11:09.975Z,4.10
2018-07-29T10:12:09.983Z,4.00
2018-07-29T10:13:09.985Z,4.00
2018-07-29T10:14:10.084Z,3.70
2018-07-29T10:15:10.001Z,3.60
2018-07-29T10:16:10.019Z,3.60
2018-07-29T10:17:10.153Z,3.60
2018-07-29T10:18:10.016Z,3.90
2018-07-29T10:19:10.024Z,3.90
2018-07-29T10:20:10.030Z,4.10
2018-07-29T10:21:10.085Z,3.40
2018-07-29T10:22:10.073Z,4.10
2018-07-29T10:23:10.049Z,3.70
2018-07-29T10:24:10.059Z,3.70
2018-07-29T10:25:10.078Z,3.50
2018-07-29T10:26:10.182Z,3.60
2018-07-29T10:27:10.105Z,3.40
2018-07-29T10:28:10.081Z,3.50
2018-07-29T10:29:10.090Z,3.90
2018-07-29T10:30:10.098Z,2.90
2018-07-29T10:31:10.139Z,3.60
2018-07-29T10:32:10.108Z,3.80
2018-07-29T10:33:10.122Z,3.60
2018-07-29T10:34:10.120Z,3.60
2018-07-29T10:35:10.130Z,4.00
2018-07-29T10:36:10.161Z,3.70
2018-07-29T10:37:10.145Z,4.10
2018-07-29T10:38:10.148Z,3.70
2018-07-29T10:39:10.156Z,3.40
2018-07-29T10:40:10.158Z,3.80
2018-07-29T10:41:10.167Z,3.70
2018-07-29T10:42:10.172Z,4.00
2018-07-29T10:43:10.187Z,4.00
2018-07-29T10:44:10.189Z,3.60
2018-07-29T10:45:10.192Z,3.50
2018-07-29T10:46:10.198Z,3.40
2018-07-29T10:47:10.207Z,3.80
2018-07-29T10:48:10.363Z,3.40
2018-07-29T10:49:10.222Z,3.90
2018-07-29T10:50:10.252Z,3.40
2018-07-29T10:51:10.262Z,3.60
2018-07-29T10:52:10.239Z,3.20
2018-07-29T10:53:10.343Z,3.20
2018-07-29T10:54:10.258Z,3.50
2018-07-29T10:55:10.259Z,4.00
2018-07-29T10:56:10.268Z,3.40
2018-07-29T10:57:10.273Z,3.70
2018-07-29T10:58:10.279Z,3.30
2018-07-29T10:59:10.436Z,3.60
2018-07-29T11:00:10.302Z,3.10
2018-07-29T11:01:10.302Z,3.40
2018-07-29T11:02:10.306Z,3.80
2018-07-29T11:03:10.317Z,3.20
2018-07-29T11:04:10.325Z,3.10
2018-07-29T11:05:11.344Z,3.50
2018-07-29T11:06:10.336Z,3.60
2018-07-29T11:07:10.343Z,3.90
2018-07-29T11:08:10.349Z,3.30
2018-07-29T11:09:10.353Z,4.00
2018-07-29T11:10:10.362Z,3.90
2018-07-29T11:11:10.410Z,3.90
2018-07-29T11:12:10.545Z,3.90
2018-07-29T11:13:10.383Z,3.60
2018-07-29T11:14:10.389Z,3.60
2018-07-29T11:15:10.392Z,3.50
2018-07-29T11:16:10.403Z,4.30
2018-07-29T11:17:10.410Z,3.60
2018-07-29T11:18:10.414Z,3.90
2018-07-29T11:19:10.426Z,3.90
2018-07-29T11:20:10.454Z,3.60
2018-07-29T11:21:10.439Z,3.90
2018-07-29T11:22:10.444Z,4.30
2018-07-29T11:23:10.451Z,3.70
2018-07-29T11:24:10.460Z,3.70
2018-07-29T11:25:10.465Z,4.20
2018-07-29T11:26:10.471Z,3.90
2018-07-29T11:27:10.480Z,4.30
2018-07-29T11:28:10.524Z,4.20
2018-07-29T11:29:10.495Z,4.00
2018-07-29T11:30:10.503Z,4.20
2018-07-29T11:31:10.510Z,4.10
2018-07-29T11:32:10.518Z,4.30
2018-07-29T11:33:10.525Z,4.20
2018-07-29T11:34:10.542Z,4.20
2018-07-29T11:35:10.539Z,4.70
2018-07-29T11:36:10.632Z,5.00
2018-07-29T11:37:10.557Z,4.60
2018-07-29T11:38:10.564Z,3.60
2018-07-29T11:39:10.575Z,4.00
2018-07-29T11:40:10.582Z,4.60
2018-07-29T11:41:10.687Z,4.30
2018-07-29T11:42:10.614Z,4.20
2018-07-29T11:43:10.611Z,3.60
2018-07-29T11:44:10.617Z,4.60
2018-07-29T11:45:10.627Z,5.20
2018-07-29T11:46:10.744Z,4.00
2018-07-29T11:47:10.671Z,3.70
2018-07-29T11:48:10.656Z,3.50
2018-07-29T11:49:10.665Z,3.90
2018-07-29T11:50:10.670Z,3.80
2018-07-29T11:51:10.696Z,3.20
2018-07-29T11:52:10.690Z,3.80
2018-07-29T11:53:10.696Z,4.20
2018-07-29T11:54:10.704Z,3.70
2018-07-29T11:55:10.716Z,3.60
2018-07-29T11:56:10.722Z,3.80
2018-07-29T11:57:10.739Z,3.50
2018-07-29T11:58:11.015Z,3.20
2018-07-29T11:59:10.746Z,3.60
2018-07-29T12:00:10.755Z,3.30
2018-07-29T12:01:10.799Z,3.10
2018-07-29T12:02:10.771Z,3.40
2018-07-29T12:03:10.782Z,3.20
2018-07-29T12:04:10.842Z,3.30
2018-07-29T12:05:10.808Z,4.10
2018-07-29T12:06:10.808Z,2.90
2018-07-29T12:07:10.818Z,3.20
2018-07-29T12:08:10.822Z,3.80
2018-07-29T12:09:11.919Z,3.40
2018-07-29T12:10:10.843Z,3.40
2018-07-29T12:11:10.877Z,3.50
2018-07-29T12:12:10.994Z,3.50
2018-07-29T12:13:10.863Z,3.20
2018-07-29T12:14:10.872Z,3.10
2018-07-29T12:15:10.907Z,3.60
2018-07-29T12:16:14.538Z,3.20
2018-07-29T12:17:11.733Z,3.20
2018-07-29T12:18:11.769Z,3.40
2018-07-29T12:19:11.155Z,3.50
2018-07-29T12:20:11.012Z,3.90
2018-07-29T12:21:11.068Z,3.70
2018-07-29T12:22:11.007Z,3.50
2018-07-29T12:23:11.686Z,4.20
2018-07-29T12:24:11.145Z,3.80
2018-07-29T12:25:23.082Z,3.70
2018-07-29T12:26:11.030Z,3.50
2018-07-29T12:27:11.667Z,4.00
2018-07-29T12:28:11.728Z,3.40
2018-07-29T12:29:11.164Z,4.10
2018-07-29T12:30:11.850Z,3.90
2018-07-29T12:31:11.701Z,3.40
2018-07-29T12:32:11.775Z,3.30
2018-07-29T12:33:11.135Z,3.60
2018-07-29T12:34:11.263Z,3.30
2018-07-29T12:35:12.748Z,3.40
2018-07-29T12:36:11.880Z,3.30
2018-07-29T12:37:11.442Z,3.70
2018-07-29T12:38:12.751Z,3.70
2018-07-29T12:39:11.728Z,3.70
2018-07-29T12:40:11.707Z,4.00
2018-07-29T12:41:18.708Z,3.30
2018-07-29T12:42:11.869Z,3.60
2018-07-29T12:43:12.230Z,3.30
2018-07-29T12:44:11.180Z,3.40
2018-07-29T12:45:11.756Z,3.60
2018-07-29T12:46:11.721Z,3.80
2018-07-29T12:47:11.276Z,3.90
2018-07-29T12:48:12.302Z,3.30
2018-07-29T12:49:11.327Z,3.50
2018-07-29T12:50:12.233Z,4.10
2018-07-29T12:51:11.375Z,3.60
2018-07-29T12:52:11.356Z,3.50
2018-07-29T12:53:11.297Z,3.80
2018-07-29T12:54:11.301Z,3.50
2018-07-29T12:55:11.318Z,3.80
2018-07-29T12:56:12.280Z,3.70
2018-07-29T12:57:11.315Z,4.00
2018-07-29T12:58:11.338Z,3.80
2018-07-29T12:59:12.203Z,3.60
2018-07-29T13:00:12.241Z,3.50
2018-07-29T13:01:13.249Z,3.70
2018-07-29T13:02:12.257Z,3.90
2018-07-29T13:03:11.497Z,4.20
2018-07-29T13:04:11.491Z,3.60
2018-07-29T13:05:12.243Z,3.90
2018-07-29T13:06:13.262Z,3.80
2018-07-29T13:07:11.354Z,3.90
2018-07-29T13:08:11.498Z,3.60
2018-07-29T13:09:11.412Z,3.50
2018-07-29T13:10:12.206Z,4.20
2018-07-29T13:11:12.733Z,3.80
2018-07-29T13:12:11.518Z,3.70
2018-07-29T13:13:11.441Z,3.60
2018-07-29T13:14:12.311Z,3.90
2018-07-29T13:15:11.445Z,3.50
2018-07-29T13:16:12.225Z,4.00
2018-07-29T13:17:12.226Z,3.70